sensor_id;sensor_type;location;lat;lon;timestamp;temperature;humidity
37678;DHT22;23517;50.390;8.616;2022-08-03T00:02:15;18.40;48.80
37678;DHT22;23517;50.390;8.616;2022-08-03T00:04:42;18.30;48.90
37678;DHT22;23517;50.390;8.616;2022-08-03T00:07:09;18.30;49.20
37678;DHT22;23517;50.390;8.616;2022-08-03T00:09:36;18.30;49.20
37678;DHT22;23517;50.390;8.616;2022-08-03T00:12:03;18.30;49.30
37678;DHT22;23517;50.390;8.616;2022-08-03T00:14:30;18.20;49.30
37678;DHT22;23517;50.390;8.616;2022-08-03T00:16:57;18.10;49.70
37678;DHT22;23517;50.390;8.616;2022-08-03T00:19:23;18.10;49.60
37678;DHT22;23517;50.390;8.616;2022-08-03T00:21:51;18.00;49.90
37678;DHT22;23517;50.390;8.616;2022-08-03T00:24:18;17.90;50.30
37678;DHT22;23517;50.390;8.616;2022-08-03T00:26:45;17.80;50.60
37678;DHT22;23517;50.390;8.616;2022-08-03T00:29:12;17.80;51.20
37678;DHT22;23517;50.390;8.616;2022-08-03T00:31:39;17.80;50.60
37678;DHT22;23517;50.390;8.616;2022-08-03T00:34:18;17.80;50.70
37678;DHT22;23517;50.390;8.616;2022-08-03T00:37:05;17.80;50.80
37678;DHT22;23517;50.390;8.616;2022-08-03T00:39:32;17.70;50.70
37678;DHT22;23517;50.390;8.616;2022-08-03T00:42:02;17.70;50.90
37678;DHT22;23517;50.390;8.616;2022-08-03T00:44:31;17.70;50.90
37678;DHT22;23517;50.390;8.616;2022-08-03T00:47:05;17.60;51.00
37678;DHT22;23517;50.390;8.616;2022-08-03T00:49:32;17.60;51.20
37678;DHT22;23517;50.390;8.616;2022-08-03T00:51:59;17.50;51.60
37678;DHT22;23517;50.390;8.616;2022-08-03T00:54:38;17.50;51.70
37678;DHT22;23517;50.390;8.616;2022-08-03T00:57:06;17.40;51.80
37678;DHT22;23517;50.390;8.616;2022-08-03T00:59:33;17.50;51.90
37678;DHT22;23517;50.390;8.616;2022-08-03T01:02:00;17.40;51.80
37678;DHT22;23517;50.390;8.616;2022-08-03T01:04:27;17.40;51.90
37678;DHT22;23517;50.390;8.616;2022-08-03T01:07:09;17.40;51.80
37678;DHT22;23517;50.390;8.616;2022-08-03T01:09:56;17.40;51.90
37678;DHT22;23517;50.390;8.616;2022-08-03T01:15:23;17.30;52.20
37678;DHT22;23517;50.390;8.616;2022-08-03T01:18:07;17.30;52.20
37678;DHT22;23517;50.390;8.616;2022-08-03T01:20:44;17.30;51.90
37678;DHT22;23517;50.390;8.616;2022-08-03T01:26:30;17.20;52.10
37678;DHT22;23517;50.390;8.616;2022-08-03T01:29:47;17.20;52.10
37678;DHT22;23517;50.390;8.616;2022-08-03T01:32:21;17.10;52.20
37678;DHT22;23517;50.390;8.616;2022-08-03T01:35:34;17.10;52.30
37678;DHT22;23517;50.390;8.616;2022-08-03T01:38:14;17.10;52.60
37678;DHT22;23517;50.390;8.616;2022-08-03T01:40:45;17.10;52.60
37678;DHT22;23517;50.390;8.616;2022-08-03T01:43:15;17.00;52.80
37678;DHT22;23517;50.390;8.616;2022-08-03T01:46:04;16.90;53.40
37678;DHT22;23517;50.390;8.616;2022-08-03T01:48:33;16.90;53.60
37678;DHT22;23517;50.390;8.616;2022-08-03T01:51:02;16.80;53.70
37678;DHT22;23517;50.390;8.616;2022-08-03T01:53:30;16.90;53.70
37678;DHT22;23517;50.390;8.616;2022-08-03T01:55:59;16.90;53.90
37678;DHT22;23517;50.390;8.616;2022-08-03T01:58:28;16.80;53.80
37678;DHT22;23517;50.390;8.616;2022-08-03T02:00:56;16.80;53.70
37678;DHT22;23517;50.390;8.616;2022-08-03T02:03:27;16.80;53.80
37678;DHT22;23517;50.390;8.616;2022-08-03T02:05:56;16.70;53.80
37678;DHT22;23517;50.390;8.616;2022-08-03T02:08:44;16.70;54.00
37678;DHT22;23517;50.390;8.616;2022-08-03T02:11:12;16.80;54.10
37678;DHT22;23517;50.390;8.616;2022-08-03T02:13:39;16.80;54.00
37678;DHT22;23517;50.390;8.616;2022-08-03T02:16:07;16.80;54.10
37678;DHT22;23517;50.390;8.616;2022-08-03T02:18:35;16.70;54.00
37678;DHT22;23517;50.390;8.616;2022-08-03T02:21:06;16.70;54.20
37678;DHT22;23517;50.390;8.616;2022-08-03T02:23:37;16.70;54.40
37678;DHT22;23517;50.390;8.616;2022-08-03T02:26:06;16.60;54.40
37678;DHT22;23517;50.390;8.616;2022-08-03T02:28:37;16.70;54.30
37678;DHT22;23517;50.390;8.616;2022-08-03T02:31:12;16.70;54.30
37678;DHT22;23517;50.390;8.616;2022-08-03T02:33:42;16.60;54.40
37678;DHT22;23517;50.390;8.616;2022-08-03T02:36:13;16.50;54.40
37678;DHT22;23517;50.390;8.616;2022-08-03T02:38:43;16.50;54.40
37678;DHT22;23517;50.390;8.616;2022-08-03T02:41:17;16.50;54.10
37678;DHT22;23517;50.390;8.616;2022-08-03T02:43:52;16.50;54.20
37678;DHT22;23517;50.390;8.616;2022-08-03T02:46:36;16.50;54.40
37678;DHT22;23517;50.390;8.616;2022-08-03T02:49:05;16.50;54.70
37678;DHT22;23517;50.390;8.616;2022-08-03T02:51:53;16.40;55.10
37678;DHT22;23517;50.390;8.616;2022-08-03T02:54:22;16.40;55.10
37678;DHT22;23517;50.390;8.616;2022-08-03T02:56:51;16.30;55.00
37678;DHT22;23517;50.390;8.616;2022-08-03T02:59:20;16.30;54.90
37678;DHT22;23517;50.390;8.616;2022-08-03T03:01:47;16.20;55.10
37678;DHT22;23517;50.390;8.616;2022-08-03T03:04:15;16.20;55.40
37678;DHT22;23517;50.390;8.616;2022-08-03T03:06:43;16.30;55.40
37678;DHT22;23517;50.390;8.616;2022-08-03T03:09:13;16.30;55.00
37678;DHT22;23517;50.390;8.616;2022-08-03T03:11:41;16.30;55.10
37678;DHT22;23517;50.390;8.616;2022-08-03T03:14:10;16.30;55.00
37678;DHT22;23517;50.390;8.616;2022-08-03T03:16:39;16.20;55.20
37678;DHT22;23517;50.390;8.616;2022-08-03T03:19:07;16.20;55.20
37678;DHT22;23517;50.390;8.616;2022-08-03T03:21:36;16.20;55.40
37678;DHT22;23517;50.390;8.616;2022-08-03T03:24:04;16.20;55.20
37678;DHT22;23517;50.390;8.616;2022-08-03T03:26:32;16.20;55.40
37678;DHT22;23517;50.390;8.616;2022-08-03T03:29:02;16.20;55.60
37678;DHT22;23517;50.390;8.616;2022-08-03T03:31:29;16.20;55.50
37678;DHT22;23517;50.390;8.616;2022-08-03T03:33:59;16.30;55.40
37678;DHT22;23517;50.390;8.616;2022-08-03T03:36:25;16.20;55.50
37678;DHT22;23517;50.390;8.616;2022-08-03T03:38:52;16.10;56.00
37678;DHT22;23517;50.390;8.616;2022-08-03T03:41:19;16.10;56.20
37678;DHT22;23517;50.390;8.616;2022-08-03T03:43:46;16.10;56.20
37678;DHT22;23517;50.390;8.616;2022-08-03T03:46:17;16.00;56.10
37678;DHT22;23517;50.390;8.616;2022-08-03T03:48:44;15.90;56.40
37678;DHT22;23517;50.390;8.616;2022-08-03T03:51:11;15.80;56.70
37678;DHT22;23517;50.390;8.616;2022-08-03T03:53:38;15.90;56.90
37678;DHT22;23517;50.390;8.616;2022-08-03T03:56:05;15.80;56.90
37678;DHT22;23517;50.390;8.616;2022-08-03T03:58:32;15.80;56.90
37678;DHT22;23517;50.390;8.616;2022-08-03T04:00:59;15.90;57.00
37678;DHT22;23517;50.390;8.616;2022-08-03T04:03:26;15.80;57.00
37678;DHT22;23517;50.390;8.616;2022-08-03T04:05:53;15.80;57.00
37678;DHT22;23517;50.390;8.616;2022-08-03T04:08:39;15.80;57.40
37678;DHT22;23517;50.390;8.616;2022-08-03T04:11:52;15.80;56.90
37678;DHT22;23517;50.390;8.616;2022-08-03T04:14:26;15.80;57.00
37678;DHT22;23517;50.390;8.616;2022-08-03T04:17:01;15.80;56.80
37678;DHT22;23517;50.390;8.616;2022-08-03T04:19:42;15.90;56.80
37678;DHT22;23517;50.390;8.616;2022-08-03T04:22:13;15.80;56.50
37678;DHT22;23517;50.390;8.616;2022-08-03T04:24:48;15.90;56.90
37678;DHT22;23517;50.390;8.616;2022-08-03T04:27:20;15.90;56.90
37678;DHT22;23517;50.390;8.616;2022-08-03T04:29:51;15.90;56.90
37678;DHT22;23517;50.390;8.616;2022-08-03T04:32:19;15.90;56.80
37678;DHT22;23517;50.390;8.616;2022-08-03T04:34:48;15.90;57.00
37678;DHT22;23517;50.390;8.616;2022-08-03T04:37:40;15.90;57.20
37678;DHT22;23517;50.390;8.616;2022-08-03T04:40:13;15.90;57.40
37678;DHT22;23517;50.390;8.616;2022-08-03T04:42:47;15.90;57.10
37678;DHT22;23517;50.390;8.616;2022-08-03T04:45:15;16.00;57.10
37678;DHT22;23517;50.390;8.616;2022-08-03T04:47:43;16.00;56.70
37678;DHT22;23517;50.390;8.616;2022-08-03T04:50:10;16.10;56.90
37678;DHT22;23517;50.390;8.616;2022-08-03T04:52:40;16.10;56.60
37678;DHT22;23517;50.390;8.616;2022-08-03T04:55:07;16.20;56.30
37678;DHT22;23517;50.390;8.616;2022-08-03T04:57:34;16.20;56.40
37678;DHT22;23517;50.390;8.616;2022-08-03T05:00:02;16.20;56.40
37678;DHT22;23517;50.390;8.616;2022-08-03T05:02:30;16.20;57.20
37678;DHT22;23517;50.390;8.616;2022-08-03T05:04:58;16.20;57.20
37678;DHT22;23517;50.390;8.616;2022-08-03T05:07:24;16.30;56.70
37678;DHT22;23517;50.390;8.616;2022-08-03T05:10:01;16.50;56.60
37678;DHT22;23517;50.390;8.616;2022-08-03T05:12:42;16.50;56.40
37678;DHT22;23517;50.390;8.616;2022-08-03T05:15:09;16.60;56.40
37678;DHT22;23517;50.390;8.616;2022-08-03T05:17:36;16.70;56.40
37678;DHT22;23517;50.390;8.616;2022-08-03T05:20:03;16.70;56.30
37678;DHT22;23517;50.390;8.616;2022-08-03T05:22:31;16.80;56.30
37678;DHT22;23517;50.390;8.616;2022-08-03T05:24:57;16.90;56.20
37678;DHT22;23517;50.390;8.616;2022-08-03T05:27:24;17.00;55.80
37678;DHT22;23517;50.390;8.616;2022-08-03T05:29:51;17.10;56.00
37678;DHT22;23517;50.390;8.616;2022-08-03T05:32:18;17.20;56.10
37678;DHT22;23517;50.390;8.616;2022-08-03T05:34:45;17.30;55.70
37678;DHT22;23517;50.390;8.616;2022-08-03T05:37:12;17.50;55.30
37678;DHT22;23517;50.390;8.616;2022-08-03T05:39:39;17.70;54.70
37678;DHT22;23517;50.390;8.616;2022-08-03T05:42:05;17.90;54.40
37678;DHT22;23517;50.390;8.616;2022-08-03T05:44:32;18.20;53.60
37678;DHT22;23517;50.390;8.616;2022-08-03T05:47:05;18.40;53.50
37678;DHT22;23517;50.390;8.616;2022-08-03T05:49:32;18.60;52.80
37678;DHT22;23517;50.390;8.616;2022-08-03T05:51:58;19.00;51.50
37678;DHT22;23517;50.390;8.616;2022-08-03T05:54:43;19.30;50.60
37678;DHT22;23517;50.390;8.616;2022-08-03T05:57:24;19.90;48.90
37678;DHT22;23517;50.390;8.616;2022-08-03T05:59:52;20.40;46.40
37678;DHT22;23517;50.390;8.616;2022-08-03T06:02:25;21.20;44.30
37678;DHT22;23517;50.390;8.616;2022-08-03T06:04:52;22.90;39.30
37678;DHT22;23517;50.390;8.616;2022-08-03T06:07:19;25.00;33.90
37678;DHT22;23517;50.390;8.616;2022-08-03T06:09:49;27.20;29.10
37678;DHT22;23517;50.390;8.616;2022-08-03T06:12:35;29.10;25.60
37678;DHT22;23517;50.390;8.616;2022-08-03T06:15:03;31.20;20.40
37678;DHT22;23517;50.390;8.616;2022-08-03T06:17:30;32.60;18.50
37678;DHT22;23517;50.390;8.616;2022-08-03T06:20:04;33.00;18.30
37678;DHT22;23517;50.390;8.616;2022-08-03T06:22:31;33.00;18.10
37678;DHT22;23517;50.390;8.616;2022-08-03T06:27:32;34.00;16.90
37678;DHT22;23517;50.390;8.616;2022-08-03T06:30:03;33.20;18.10
37678;DHT22;23517;50.390;8.616;2022-08-03T06:32:30;33.40;17.10
37678;DHT22;23517;50.390;8.616;2022-08-03T06:34:57;33.00;18.00
37678;DHT22;23517;50.390;8.616;2022-08-03T06:37:24;32.80;18.20
37678;DHT22;23517;50.390;8.616;2022-08-03T06:39:52;34.20;17.20
37678;DHT22;23517;50.390;8.616;2022-08-03T06:42:19;35.30;16.00
37678;DHT22;23517;50.390;8.616;2022-08-03T06:44:48;35.30;15.10
37678;DHT22;23517;50.390;8.616;2022-08-03T06:47:15;34.60;15.60
37678;DHT22;23517;50.390;8.616;2022-08-03T06:49:42;34.90;15.30
37678;DHT22;23517;50.390;8.616;2022-08-03T06:55:04;35.10;14.90
37678;DHT22;23517;50.390;8.616;2022-08-03T06:57:31;35.80;14.90
37678;DHT22;23517;50.390;8.616;2022-08-03T06:59:58;36.40;14.10
37678;DHT22;23517;50.390;8.616;2022-08-03T07:02:38;36.40;15.00
37678;DHT22;23517;50.390;8.616;2022-08-03T07:05:08;38.10;13.20
37678;DHT22;23517;50.390;8.616;2022-08-03T07:07:36;39.50;12.10
37678;DHT22;23517;50.390;8.616;2022-08-03T07:10:04;40.10;11.50
37678;DHT22;23517;50.390;8.616;2022-08-03T07:12:33;39.90;11.20
37678;DHT22;23517;50.390;8.616;2022-08-03T07:15:01;39.40;12.00
37678;DHT22;23517;50.390;8.616;2022-08-03T07:17:31;40.30;11.60
37678;DHT22;23517;50.390;8.616;2022-08-03T07:19:59;40.20;11.90
37678;DHT22;23517;50.390;8.616;2022-08-03T07:22:27;40.40;11.70
37678;DHT22;23517;50.390;8.616;2022-08-03T07:24:55;40.20;12.10
37678;DHT22;23517;50.390;8.616;2022-08-03T07:27:22;40.30;11.70
37678;DHT22;23517;50.390;8.616;2022-08-03T07:32:17;41.40;10.50
37678;DHT22;23517;50.390;8.616;2022-08-03T07:34:44;41.50;10.80
37678;DHT22;23517;50.390;8.616;2022-08-03T07:37:17;41.90;10.20
37678;DHT22;23517;50.390;8.616;2022-08-03T07:39:44;41.40;10.80
37678;DHT22;23517;50.390;8.616;2022-08-03T07:42:11;41.40;10.30
37678;DHT22;23517;50.390;8.616;2022-08-03T07:44:38;41.40;10.50
37678;DHT22;23517;50.390;8.616;2022-08-03T07:47:06;41.10;10.50
37678;DHT22;23517;50.390;8.616;2022-08-03T07:49:38;41.70;9.90
37678;DHT22;23517;50.390;8.616;2022-08-03T07:52:06;42.00;9.80
37678;DHT22;23517;50.390;8.616;2022-08-03T07:54:54;41.70;10.30
37678;DHT22;23517;50.390;8.616;2022-08-03T07:57:20;41.90;10.30
37678;DHT22;23517;50.390;8.616;2022-08-03T07:59:47;41.70;10.10
37678;DHT22;23517;50.390;8.616;2022-08-03T08:02:28;41.10;11.00
37678;DHT22;23517;50.390;8.616;2022-08-03T08:04:54;40.50;10.80
37678;DHT22;23517;50.390;8.616;2022-08-03T08:07:23;40.80;10.60
37678;DHT22;23517;50.390;8.616;2022-08-03T08:09:51;41.50;10.50
37678;DHT22;23517;50.390;8.616;2022-08-03T08:12:18;40.80;10.60
37678;DHT22;23517;50.390;8.616;2022-08-03T08:14:45;41.20;10.70
37678;DHT22;23517;50.390;8.616;2022-08-03T08:17:12;41.50;10.50
37678;DHT22;23517;50.390;8.616;2022-08-03T08:19:39;41.50;10.20
37678;DHT22;23517;50.390;8.616;2022-08-03T08:22:17;41.00;10.80
37678;DHT22;23517;50.390;8.616;2022-08-03T08:24:57;40.70;10.90
37678;DHT22;23517;50.390;8.616;2022-08-03T08:27:24;40.70;11.20
37678;DHT22;23517;50.390;8.616;2022-08-03T08:29:51;40.90;10.80
37678;DHT22;23517;50.390;8.616;2022-08-03T08:32:22;41.10;10.60
37678;DHT22;23517;50.390;8.616;2022-08-03T08:34:49;40.80;10.30
37678;DHT22;23517;50.390;8.616;2022-08-03T08:37:16;41.00;10.50
37678;DHT22;23517;50.390;8.616;2022-08-03T08:39:43;40.60;10.60
37678;DHT22;23517;50.390;8.616;2022-08-03T08:42:09;40.80;10.40
37678;DHT22;23517;50.390;8.616;2022-08-03T08:44:36;41.10;10.70
37678;DHT22;23517;50.390;8.616;2022-08-03T08:47:03;41.90;9.70
37678;DHT22;23517;50.390;8.616;2022-08-03T08:51:58;42.00;9.30
37678;DHT22;23517;50.390;8.616;2022-08-03T08:54:28;41.80;9.70
37678;DHT22;23517;50.390;8.616;2022-08-03T08:56:56;41.50;9.70
37678;DHT22;23517;50.390;8.616;2022-08-03T08:59:31;41.40;9.80
37678;DHT22;23517;50.390;8.616;2022-08-03T09:02:15;42.00;9.30
37678;DHT22;23517;50.390;8.616;2022-08-03T09:04:42;41.40;9.30
37678;DHT22;23517;50.390;8.616;2022-08-03T09:07:11;41.00;9.90
37678;DHT22;23517;50.390;8.616;2022-08-03T09:09:46;41.60;10.00
37678;DHT22;23517;50.390;8.616;2022-08-03T09:12:51;41.80;9.20
37678;DHT22;23517;50.390;8.616;2022-08-03T09:15:22;41.50;9.30
37678;DHT22;23517;50.390;8.616;2022-08-03T09:17:54;41.70;9.30
37678;DHT22;23517;50.390;8.616;2022-08-03T09:20:23;41.90;9.50
37678;DHT22;23517;50.390;8.616;2022-08-03T09:25:38;42.60;8.70
37678;DHT22;23517;50.390;8.616;2022-08-03T09:28:13;42.30;8.90
37678;DHT22;23517;50.390;8.616;2022-08-03T09:31:01;42.90;8.20
37678;DHT22;23517;50.390;8.616;2022-08-03T09:33:28;42.70;8.10
37678;DHT22;23517;50.390;8.616;2022-08-03T09:36:01;43.10;8.10
37678;DHT22;23517;50.390;8.616;2022-08-03T09:38:28;41.40;8.80
37678;DHT22;23517;50.390;8.616;2022-08-03T09:40:56;40.90;9.50
37678;DHT22;23517;50.390;8.616;2022-08-03T09:43:27;41.90;8.70
37678;DHT22;23517;50.390;8.616;2022-08-03T09:46:04;42.80;8.30
37678;DHT22;23517;50.390;8.616;2022-08-03T09:48:32;43.90;7.70
37678;DHT22;23517;50.390;8.616;2022-08-03T09:51:03;44.30;7.80
37678;DHT22;23517;50.390;8.616;2022-08-03T09:53:44;44.00;7.10
37678;DHT22;23517;50.390;8.616;2022-08-03T09:56:45;44.00;7.50
37678;DHT22;23517;50.390;8.616;2022-08-03T09:59:25;43.20;8.00
37678;DHT22;23517;50.390;8.616;2022-08-03T10:01:55;43.10;8.20
37678;DHT22;23517;50.390;8.616;2022-08-03T10:04:23;42.80;8.30
37678;DHT22;23517;50.390;8.616;2022-08-03T10:07:07;42.30;8.80
37678;DHT22;23517;50.390;8.616;2022-08-03T10:09:36;42.10;8.40
37678;DHT22;23517;50.390;8.616;2022-08-03T10:12:11;40.50;9.30
37678;DHT22;23517;50.390;8.616;2022-08-03T10:14:40;40.50;9.60
37678;DHT22;23517;50.390;8.616;2022-08-03T10:17:10;40.60;9.50
37678;DHT22;23517;50.390;8.616;2022-08-03T10:19:38;40.60;9.40
37678;DHT22;23517;50.390;8.616;2022-08-03T10:22:11;40.00;10.30
37678;DHT22;23517;50.390;8.616;2022-08-03T10:24:49;40.10;10.30
37678;DHT22;23517;50.390;8.616;2022-08-03T10:27:21;39.10;10.50
37678;DHT22;23517;50.390;8.616;2022-08-03T10:29:52;37.70;11.50
37678;DHT22;23517;50.390;8.616;2022-08-03T10:32:27;36.70;11.70
37678;DHT22;23517;50.390;8.616;2022-08-03T10:35:26;35.10;13.60
37678;DHT22;23517;50.390;8.616;2022-08-03T10:38:02;34.50;13.80
37678;DHT22;23517;50.390;8.616;2022-08-03T10:40:33;34.00;14.50
37678;DHT22;23517;50.390;8.616;2022-08-03T10:43:26;33.60;14.40
37678;DHT22;23517;50.390;8.616;2022-08-03T10:45:55;33.40;15.30
37678;DHT22;23517;50.390;8.616;2022-08-03T10:48:22;33.30;14.80
37678;DHT22;23517;50.390;8.616;2022-08-03T10:50:49;33.10;15.00
37678;DHT22;23517;50.390;8.616;2022-08-03T10:53:36;32.90;15.00
37678;DHT22;23517;50.390;8.616;2022-08-03T10:56:04;32.60;15.50
37678;DHT22;23517;50.390;8.616;2022-08-03T10:59:10;32.50;15.90
37678;DHT22;23517;50.390;8.616;2022-08-03T11:01:52;32.50;15.70
37678;DHT22;23517;50.390;8.616;2022-08-03T11:04:27;32.50;15.70
37678;DHT22;23517;50.390;8.616;2022-08-03T11:09:42;32.20;16.00
37678;DHT22;23517;50.390;8.616;2022-08-03T11:15:03;32.30;16.20
37678;DHT22;23517;50.390;8.616;2022-08-03T11:17:33;32.20;15.90
37678;DHT22;23517;50.390;8.616;2022-08-03T11:23:13;32.10;16.30
37678;DHT22;23517;50.390;8.616;2022-08-03T11:28:37;32.00;15.90
37678;DHT22;23517;50.390;8.616;2022-08-03T11:34:12;31.90;16.10
37678;DHT22;23517;50.390;8.616;2022-08-03T11:37:17;32.00;16.30
37678;DHT22;23517;50.390;8.616;2022-08-03T11:39:51;32.10;16.20
37678;DHT22;23517;50.390;8.616;2022-08-03T11:44:51;32.10;16.40
37678;DHT22;23517;50.390;8.616;2022-08-03T11:47:20;31.90;16.10
37678;DHT22;23517;50.390;8.616;2022-08-03T11:49:49;31.90;16.20
37678;DHT22;23517;50.390;8.616;2022-08-03T11:52:17;32.20;16.20
37678;DHT22;23517;50.390;8.616;2022-08-03T11:54:53;32.10;15.70
37678;DHT22;23517;50.390;8.616;2022-08-03T11:57:33;32.00;16.50
37678;DHT22;23517;50.390;8.616;2022-08-03T12:00:30;32.00;16.80
37678;DHT22;23517;50.390;8.616;2022-08-03T12:03:03;32.10;16.20
37678;DHT22;23517;50.390;8.616;2022-08-03T12:05:40;32.10;16.10
37678;DHT22;23517;50.390;8.616;2022-08-03T12:08:31;32.20;15.60
37678;DHT22;23517;50.390;8.616;2022-08-03T12:11:00;32.20;16.00
37678;DHT22;23517;50.390;8.616;2022-08-03T12:13:46;32.10;16.10
37678;DHT22;23517;50.390;8.616;2022-08-03T12:16:36;32.10;16.20
37678;DHT22;23517;50.390;8.616;2022-08-03T12:19:04;31.70;16.00
37678;DHT22;23517;50.390;8.616;2022-08-03T12:21:33;31.70;16.30
37678;DHT22;23517;50.390;8.616;2022-08-03T12:24:02;31.80;16.00
37678;DHT22;23517;50.390;8.616;2022-08-03T12:26:50;31.90;15.80
37678;DHT22;23517;50.390;8.616;2022-08-03T12:29:25;31.90;15.70
37678;DHT22;23517;50.390;8.616;2022-08-03T12:31:52;31.90;15.60
37678;DHT22;23517;50.390;8.616;2022-08-03T12:34:21;31.90;15.60
37678;DHT22;23517;50.390;8.616;2022-08-03T12:36:53;31.80;15.80
37678;DHT22;23517;50.390;8.616;2022-08-03T12:39:26;31.80;15.80
37678;DHT22;23517;50.390;8.616;2022-08-03T12:41:58;31.90;15.80
37678;DHT22;23517;50.390;8.616;2022-08-03T12:44:32;32.10;16.10
37678;DHT22;23517;50.390;8.616;2022-08-03T12:47:03;32.10;16.10
37678;DHT22;23517;50.390;8.616;2022-08-03T12:49:46;32.30;15.60
37678;DHT22;23517;50.390;8.616;2022-08-03T12:52:15;32.30;16.20
37678;DHT22;23517;50.390;8.616;2022-08-03T12:54:56;32.30;15.80
37678;DHT22;23517;50.390;8.616;2022-08-03T12:57:24;32.30;15.80
37678;DHT22;23517;50.390;8.616;2022-08-03T12:59:51;32.30;15.70
37678;DHT22;23517;50.390;8.616;2022-08-03T13:02:24;32.30;15.80
37678;DHT22;23517;50.390;8.616;2022-08-03T13:04:52;32.40;15.40
37678;DHT22;23517;50.390;8.616;2022-08-03T13:07:20;32.40;15.30
37678;DHT22;23517;50.390;8.616;2022-08-03T13:09:50;32.40;15.80
37678;DHT22;23517;50.390;8.616;2022-08-03T13:12:20;32.40;15.60
37678;DHT22;23517;50.390;8.616;2022-08-03T13:14:50;32.50;15.90
37678;DHT22;23517;50.390;8.616;2022-08-03T13:17:26;32.60;15.50
37678;DHT22;23517;50.390;8.616;2022-08-03T13:19:53;32.60;15.10
37678;DHT22;23517;50.390;8.616;2022-08-03T13:22:22;32.50;15.10
37678;DHT22;23517;50.390;8.616;2022-08-03T13:24:53;32.30;15.10
37678;DHT22;23517;50.390;8.616;2022-08-03T13:27:24;32.30;15.20
37678;DHT22;23517;50.390;8.616;2022-08-03T13:30:11;32.30;15.40
37678;DHT22;23517;50.390;8.616;2022-08-03T13:32:43;32.30;15.40
37678;DHT22;23517;50.390;8.616;2022-08-03T13:35:11;32.40;15.10
37678;DHT22;23517;50.390;8.616;2022-08-03T13:37:42;32.40;15.20
37678;DHT22;23517;50.390;8.616;2022-08-03T13:40:14;32.50;15.20
37678;DHT22;23517;50.390;8.616;2022-08-03T13:42:41;32.50;14.90
37678;DHT22;23517;50.390;8.616;2022-08-03T13:45:08;32.60;14.70
37678;DHT22;23517;50.390;8.616;2022-08-03T13:47:35;32.60;14.80
37678;DHT22;23517;50.390;8.616;2022-08-03T13:50:03;32.70;14.80
37678;DHT22;23517;50.390;8.616;2022-08-03T13:52:32;32.80;14.80
37678;DHT22;23517;50.390;8.616;2022-08-03T13:55:00;32.80;14.90
37678;DHT22;23517;50.390;8.616;2022-08-03T13:57:29;32.80;14.90
37678;DHT22;23517;50.390;8.616;2022-08-03T14:00:16;32.80;14.90
37678;DHT22;23517;50.390;8.616;2022-08-03T14:03:00;32.90;14.20
37678;DHT22;23517;50.390;8.616;2022-08-03T14:05:38;32.90;14.30
37678;DHT22;23517;50.390;8.616;2022-08-03T14:08:06;32.80;14.50
37678;DHT22;23517;50.390;8.616;2022-08-03T14:10:35;32.90;14.40
37678;DHT22;23517;50.390;8.616;2022-08-03T14:13:04;32.90;14.20
37678;DHT22;23517;50.390;8.616;2022-08-03T14:15:31;32.90;14.80
37678;DHT22;23517;50.390;8.616;2022-08-03T14:18:07;33.00;14.80
37678;DHT22;23517;50.390;8.616;2022-08-03T14:20:45;32.80;14.40
37678;DHT22;23517;50.390;8.616;2022-08-03T14:23:17;32.90;14.80
37678;DHT22;23517;50.390;8.616;2022-08-03T14:25:44;33.00;15.50
37678;DHT22;23517;50.390;8.616;2022-08-03T14:28:19;33.10;14.70
37678;DHT22;23517;50.390;8.616;2022-08-03T14:30:51;33.00;14.90
37678;DHT22;23517;50.390;8.616;2022-08-03T14:33:18;33.00;15.10
37678;DHT22;23517;50.390;8.616;2022-08-03T14:35:45;33.10;14.70
37678;DHT22;23517;50.390;8.616;2022-08-03T14:38:12;33.10;14.60
37678;DHT22;23517;50.390;8.616;2022-08-03T14:40:39;33.20;14.50
37678;DHT22;23517;50.390;8.616;2022-08-03T14:43:06;33.30;14.30
37678;DHT22;23517;50.390;8.616;2022-08-03T14:45:33;33.20;14.30
37678;DHT22;23517;50.390;8.616;2022-08-03T14:48:00;33.30;14.10
37678;DHT22;23517;50.390;8.616;2022-08-03T14:50:48;33.20;14.40
37678;DHT22;23517;50.390;8.616;2022-08-03T14:53:18;33.40;14.30
37678;DHT22;23517;50.390;8.616;2022-08-03T14:55:45;33.50;14.00
37678;DHT22;23517;50.390;8.616;2022-08-03T14:58:18;33.50;14.10
37678;DHT22;23517;50.390;8.616;2022-08-03T15:00:47;33.50;13.80
37678;DHT22;23517;50.390;8.616;2022-08-03T15:03:14;33.40;13.80
37678;DHT22;23517;50.390;8.616;2022-08-03T15:05:42;33.40;14.20
37678;DHT22;23517;50.390;8.616;2022-08-03T15:08:10;33.40;14.10
37678;DHT22;23517;50.390;8.616;2022-08-03T15:10:36;33.40;13.90
37678;DHT22;23517;50.390;8.616;2022-08-03T15:13:09;33.50;14.00
37678;DHT22;23517;50.390;8.616;2022-08-03T15:15:36;33.50;14.00
37678;DHT22;23517;50.390;8.616;2022-08-03T15:18:02;33.60;14.00
37678;DHT22;23517;50.390;8.616;2022-08-03T15:20:29;33.60;14.00
37678;DHT22;23517;50.390;8.616;2022-08-03T15:23:09;33.60;14.10
37678;DHT22;23517;50.390;8.616;2022-08-03T15:25:38;33.40;14.40
37678;DHT22;23517;50.390;8.616;2022-08-03T15:28:25;33.40;14.50
37678;DHT22;23517;50.390;8.616;2022-08-03T15:30:52;33.50;14.30
37678;DHT22;23517;50.390;8.616;2022-08-03T15:33:19;33.50;14.00
37678;DHT22;23517;50.390;8.616;2022-08-03T15:35:46;33.60;14.00
37678;DHT22;23517;50.390;8.616;2022-08-03T15:38:13;33.60;14.10
37678;DHT22;23517;50.390;8.616;2022-08-03T15:40:40;33.70;13.80
37678;DHT22;23517;50.390;8.616;2022-08-03T15:43:07;33.70;13.90
37678;DHT22;23517;50.390;8.616;2022-08-03T15:45:34;33.70;14.10
37678;DHT22;23517;50.390;8.616;2022-08-03T15:48:05;33.70;13.60
37678;DHT22;23517;50.390;8.616;2022-08-03T15:50:32;33.60;13.70
37678;DHT22;23517;50.390;8.616;2022-08-03T15:52:59;33.50;13.90
37678;DHT22;23517;50.390;8.616;2022-08-03T15:55:26;33.50;14.10
37678;DHT22;23517;50.390;8.616;2022-08-03T15:57:53;33.60;14.10
37678;DHT22;23517;50.390;8.616;2022-08-03T16:00:41;33.50;13.70
37678;DHT22;23517;50.390;8.616;2022-08-03T16:03:09;33.40;13.90
37678;DHT22;23517;50.390;8.616;2022-08-03T16:05:35;33.30;13.90
37678;DHT22;23517;50.390;8.616;2022-08-03T16:08:02;33.20;14.10
37678;DHT22;23517;50.390;8.616;2022-08-03T16:10:33;33.20;14.00
37678;DHT22;23517;50.390;8.616;2022-08-03T16:13:00;33.20;14.10
37678;DHT22;23517;50.390;8.616;2022-08-03T16:15:26;33.00;14.50
37678;DHT22;23517;50.390;8.616;2022-08-03T16:17:53;33.10;14.20
37678;DHT22;23517;50.390;8.616;2022-08-03T16:20:20;33.00;14.00
37678;DHT22;23517;50.390;8.616;2022-08-03T16:23:00;32.90;14.10
37678;DHT22;23517;50.390;8.616;2022-08-03T16:25:40;32.80;14.10
37678;DHT22;23517;50.390;8.616;2022-08-03T16:28:15;32.90;14.10
37678;DHT22;23517;50.390;8.616;2022-08-03T16:30:44;33.00;14.30
37678;DHT22;23517;50.390;8.616;2022-08-03T16:33:13;32.90;13.80
37678;DHT22;23517;50.390;8.616;2022-08-03T16:35:44;33.00;14.30
37678;DHT22;23517;50.390;8.616;2022-08-03T16:38:11;33.00;14.10